Time;durP1;ratioP1;P1;durP2;ratioP2;P2;SDS_P1;SDS_P2;PMS_P1;PMS_P2;Temp;Humidity;BMP_temperature;BMP_pressure;BME280_temperature;BME280_humidity;BME280_pressure;Samples;Min_cycle;Max_cycle;Signal;HPM_P1;HPM_P2
2021/09/23 00:00:21;;;;;;;987.05;878.65;;;;;;;;;;5006318;28;20518;-73
2021/09/23 00:05:17;;;;;;;993.92;884.97;;;;;;;;;;5007081;28;20026;-75
2021/09/23 00:07:44;;;;;;;990.47;881.67;;;;;;;;;;5010425;28;20096;-73
2021/09/23 00:10:12;;;;;;;975.25;866.70;;;;;;;;;;5005166;28;20065;-73
2021/09/23 00:12:38;;;;;;;975.53;866.85;;;;;;;;;;5007541;28;20125;-73
2021/09/23 00:15:05;;;;;;;978.80;870.42;;;;;;;;;;5015886;28;20116;-73
2021/09/23 00:17:31;;;;;;;986.28;877.67;;;;;;;;;;5008386;28;20088;-73
2021/09/23 00:19:57;;;;;;;989.45;880.88;;;;;;;;;;5007121;28;20034;-74
2021/09/23 00:22:23;;;;;;;985.90;877.58;;;;;;;;;;5009140;28;20042;-74
2021/09/23 00:24:49;;;;;;;989.05;880.50;;;;;;;;;;5006275;28;20105;-74
2021/09/23 00:27:15;;;;;;;990.92;881.97;;;;;;;;;;5007162;28;20025;-74
2021/09/23 00:29:42;;;;;;;1000.72;891.33;;;;;;;;;;5005815;28;20033;-74
2021/09/23 00:32:08;;;;;;;984.50;875.85;;;;;;;;;;5005809;28;20034;-73
2021/09/23 00:34:34;;;;;;;987.58;878.90;;;;;;;;;;5010716;28;20113;-75
2021/09/23 00:37:00;;;;;;;983.35;875.08;;;;;;;;;;5009202;28;20033;-74
2021/09/23 00:39:26;;;;;;;978.50;870.58;;;;;;;;;;5013707;28;20493;-74
2021/09/23 00:41:52;;;;;;;987.15;878.63;;;;;;;;;;5008845;28;20022;-74
2021/09/23 00:44:20;;;;;;;979.47;871.30;;;;;;;;;;5013784;28;20044;-74
2021/09/23 00:46:47;;;;;;;988.88;880.42;;;;;;;;;;5009871;28;20476;-76
2021/09/23 00:49:13;;;;;;;975.85;866.65;;;;;;;;;;5006462;28;20057;-75
2021/09/23 00:51:39;;;;;;;976.72;867.35;;;;;;;;;;5013853;28;20068;-73
2021/09/23 00:54:06;;;;;;;978.58;870.47;;;;;;;;;;5008443;28;20104;-74
2021/09/23 00:56:32;;;;;;;969.17;858.72;;;;;;;;;;5007462;28;20390;-74
2021/09/23 00:58:59;;;;;;;972.47;863.72;;;;;;;;;;5012765;28;20034;-74
2021/09/23 01:01:26;;;;;;;972.53;860.30;;;;;;;;;;5007426;28;20097;-74
2021/09/23 01:03:53;;;;;;;979.90;871.05;;;;;;;;;;5005946;28;20466;-74
2021/09/23 01:06:23;;;;;;;979.72;871.33;;;;;;;;;;5013744;28;20018;-74
2021/09/23 01:08:57;;;;;;;971.38;860.83;;;;;;;;;;5008023;28;20041;-74
2021/09/23 01:11:25;;;;;;;971.88;855.70;;;;;;;;;;5008849;28;20029;-74
2021/09/23 01:13:51;;;;;;;969.72;847.75;;;;;;;;;;5008700;28;20030;-74
2021/09/23 01:16:18;;;;;;;971.65;857.72;;;;;;;;;;5010223;28;20108;-74
2021/09/23 01:18:44;;;;;;;974.78;862.15;;;;;;;;;;5008133;28;20033;-74
2021/09/23 01:21:10;;;;;;;971.97;848.78;;;;;;;;;;5007825;28;20469;-75
2021/09/23 01:23:37;;;;;;;969.95;852.08;;;;;;;;;;5008771;28;20037;-74
2021/09/23 01:26:06;;;;;;;979.65;855.03;;;;;;;;;;5010861;28;20014;-74
2021/09/23 01:28:33;;;;;;;970.50;848.53;;;;;;;;;;5009062;28;20037;-74
2021/09/23 01:30:59;;;;;;;972.67;852.75;;;;;;;;;;5004883;28;20018;-74
2021/09/23 01:33:25;;;;;;;968.63;849.60;;;;;;;;;;5012394;28;20494;-75
2021/09/23 01:35:52;;;;;;;974.35;853.80;;;;;;;;;;5007297;28;20021;-74
2021/09/23 01:38:18;;;;;;;973.38;850.42;;;;;;;;;;5007963;28;20394;-74
2021/09/23 01:40:44;;;;;;;970.35;852.25;;;;;;;;;;5017143;28;20086;-74
2021/09/23 01:43:14;;;;;;;974.65;855.53;;;;;;;;;;5008886;28;20045;-75
2021/09/23 01:45:41;;;;;;;976.38;856.15;;;;;;;;;;5009491;28;20072;-74
2021/09/23 01:48:07;;;;;;;969.42;841.90;;;;;;;;;;5006896;28;20033;-73
2021/09/23 01:50:33;;;;;;;976.08;861.03;;;;;;;;;;5008942;28;20433;-74
2021/09/23 01:53:00;;;;;;;970.40;850.22;;;;;;;;;;5010384;28;20116;-74
2021/09/23 01:55:27;;;;;;;975.00;857.63;;;;;;;;;;5008818;28;20034;-74
2021/09/23 01:57:54;;;;;;;978.30;863.05;;;;;;;;;;5026659;28;20029;-75
2021/09/23 02:00:21;;;;;;;975.13;852.08;;;;;;;;;;5007292;28;20022;-73
2021/09/23 02:02:50;;;;;;;967.28;841.10;;;;;;;;;;5010238;28;20030;-73
2021/09/23 02:05:16;;;;;;;971.22;845.83;;;;;;;;;;4990380;28;20068;-73
2021/09/23 02:07:42;;;;;;;969.97;846.55;;;;;;;;;;5007172;28;20033;-73
2021/09/23 02:10:08;;;;;;;975.83;855.83;;;;;;;;;;5008944;28;20021;-73
2021/09/23 02:12:35;;;;;;;972.28;851.42;;;;;;;;;;5006758;28;20215;-74
2021/09/23 02:15:01;;;;;;;968.83;848.92;;;;;;;;;;5014917;28;20014;-73
2021/09/23 02:17:29;;;;;;;974.65;857.05;;;;;;;;;;5005182;28;20033;-73
2021/09/23 02:19:56;;;;;;;970.35;842.20;;;;;;;;;;5008637;28;20486;-73
2021/09/23 02:22:23;;;;;;;972.10;855.78;;;;;;;;;;5002725;28;20022;-73
2021/09/23 02:24:49;;;;;;;967.25;839.67;;;;;;;;;;5009090;28;20096;-73
2021/09/23 02:27:15;;;;;;;973.38;849.90;;;;;;;;;;5006761;28;20072;-73
2021/09/23 02:29:43;;;;;;;968.47;847.80;;;;;;;;;;5006587;28;20018;-75
2021/09/23 02:32:09;;;;;;;967.75;843.13;;;;;;;;;;5007185;28;20022;-73
2021/09/23 02:34:36;;;;;;;969.75;849.03;;;;;;;;;;5006582;28;20037;-73
2021/09/23 02:37:03;;;;;;;969.20;853.38;;;;;;;;;;5012065;28;20386;-73
2021/09/23 02:39:30;;;;;;;962.95;840.60;;;;;;;;;;5012556;28;20155;-73
2021/09/23 02:41:56;;;;;;;967.22;851.15;;;;;;;;;;5006592;28;20026;-74
2021/09/23 02:44:23;;;;;;;974.95;866.50;;;;;;;;;;5002377;28;20586;-73
2021/09/23 02:46:49;;;;;;;964.33;848.10;;;;;;;;;;5010388;28;20457;-73
2021/09/23 02:49:16;;;;;;;974.38;864.97;;;;;;;;;;5006481;28;20038;-74
2021/09/23 02:51:43;;;;;;;968.90;855.80;;;;;;;;;;5007971;28;20410;-75
2021/09/23 02:54:09;;;;;;;975.00;865.28;;;;;;;;;;5007996;28;20042;-74
2021/09/23 02:56:35;;;;;;;974.30;863.72;;;;;;;;;;5009338;28;20036;-74
2021/09/23 02:59:02;;;;;;;971.70;860.00;;;;;;;;;;5006193;28;20536;-74
2021/09/23 03:01:28;;;;;;;978.03;869.97;;;;;;;;;;5005787;28;20693;-75
2021/09/23 03:03:54;;;;;;;982.80;874.45;;;;;;;;;;5006880;28;20335;-75
2021/09/23 03:06:21;;;;;;;997.28;888.20;;;;;;;;;;5003246;28;20526;-73
2021/09/23 03:08:47;;;;;;;983.47;874.97;;;;;;;;;;5009617;28;20030;-74
2021/09/23 03:11:13;;;;;;;985.55;877.17;;;;;;;;;;5007339;28;20026;-74
2021/09/23 03:13:40;;;;;;;989.33;880.45;;;;;;;;;;5006072;28;20520;-74
2021/09/23 03:16:07;;;;;;;1003.35;893.90;;;;;;;;;;5000269;28;20049;-73
2021/09/23 03:18:33;;;;;;;978.78;869.80;;;;;;;;;;5008345;28;20057;-74
2021/09/23 03:20:59;;;;;;;988.40;879.55;;;;;;;;;;5009650;28;20486;-74
2021/09/23 03:23:26;;;;;;;993.63;884.67;;;;;;;;;;5020980;28;20045;-73
2021/09/23 03:25:53;;;;;;;990.90;882.10;;;;;;;;;;5006328;28;20105;-74
2021/09/23 03:28:19;;;;;;;986.70;878.05;;;;;;;;;;5007496;28;20463;-74
2021/09/23 03:30:46;;;;;;;990.42;881.65;;;;;;;;;;5005334;28;20030;-74
2021/09/23 03:33:13;;;;;;;994.15;885.13;;;;;;;;;;5005363;28;20125;-73
2021/09/23 03:35:40;;;;;;;998.10;888.85;;;;;;;;;;5002512;28;20310;-74
2021/09/23 03:38:08;;;;;;;992.35;883.47;;;;;;;;;;5002812;28;20031;-74
2021/09/23 03:40:34;;;;;;;992.47;883.92;;;;;;;;;;5026714;28;20056;-73
2021/09/23 03:43:01;;;;;;;988.88;880.22;;;;;;;;;;5007525;28;20659;-74
2021/09/23 03:45:27;;;;;;;981.15;872.05;;;;;;;;;;5007018;28;20033;-74
2021/09/23 03:47:53;;;;;;;993.38;884.22;;;;;;;;;;5005778;28;20582;-74
2021/09/23 03:50:20;;;;;;;986.53;873.60;;;;;;;;;;5007306;28;20037;-74
2021/09/23 03:52:47;;;;;;;998.55;889.22;;;;;;;;;;5007093;28;20173;-73
2021/09/23 03:55:15;;;;;;;975.75;867.55;;;;;;;;;;5006121;28;20180;-74
2021/09/23 03:57:42;;;;;;;983.88;874.05;;;;;;;;;;5007064;28;20050;-74
2021/09/23 04:00:08;;;;;;;981.97;871.42;;;;;;;;;;5004904;28;20026;-74
2021/09/23 04:02:34;;;;;;;976.28;865.92;;;;;;;;;;5006150;28;20054;-74
2021/09/23 04:05:01;;;;;;;983.20;873.75;;;;;;;;;;5005185;28;20026;-75
2021/09/23 04:07:28;;;;;;;979.47;870.22;;;;;;;;;;5005549;28;20025;-74
2021/09/23 04:09:55;;;;;;;978.90;868.80;;;;;;;;;;5007355;28;20033;-74
2021/09/23 04:12:21;;;;;;;981.03;872.15;;;;;;;;;;5015179;28;20452;-74
2021/09/23 04:14:48;;;;;;;971.55;859.88;;;;;;;;;;5029220;28;20403;-73
2021/09/23 04:17:14;;;;;;;974.08;856.92;;;;;;;;;;5020377;28;20036;-74
2021/09/23 04:19:40;;;;;;;975.85;862.85;;;;;;;;;;5010039;28;20062;-74
2021/09/23 04:22:06;;;;;;;978.97;864.80;;;;;;;;;;5009266;28;20537;-74
2021/09/23 04:24:33;;;;;;;977.85;860.30;;;;;;;;;;5009452;28;20034;-74
2021/09/23 04:26:59;;;;;;;972.47;854.75;;;;;;;;;;5011776;28;20034;-74
2021/09/23 04:29:25;;;;;;;981.38;863.85;;;;;;;;;;5010513;28;20053;-74
2021/09/23 04:31:52;;;;;;;981.92;869.47;;;;;;;;;;5013075;28;20056;-74
2021/09/23 04:34:18;;;;;;;981.22;867.78;;;;;;;;;;5013475;28;20030;-73
2021/09/23 04:36:44;;;;;;;979.10;861.08;;;;;;;;;;5012299;28;20045;-73
2021/09/23 04:39:12;;;;;;;979.53;867.30;;;;;;;;;;5009114;28;20129;-74
2021/09/23 04:41:39;;;;;;;974.60;855.88;;;;;;;;;;5008159;28;20081;-74
2021/09/23 04:44:05;;;;;;;977.45;859.03;;;;;;;;;;5007356;28;20034;-74
2021/09/23 04:46:32;;;;;;;982.88;864.80;;;;;;;;;;5003104;28;20026;-74
2021/09/23 04:49:00;;;;;;;976.05;860.28;;;;;;;;;;5012128;28;20564;-73
2021/09/23 04:51:27;;;;;;;978.00;861.38;;;;;;;;;;5015043;28;20084;-73
2021/09/23 04:53:54;;;;;;;971.65;847.47;;;;;;;;;;5009841;28;20049;-73
2021/09/23 04:56:20;;;;;;;979.50;863.63;;;;;;;;;;5008079;28;20141;-74
2021/09/23 04:58:47;;;;;;;976.78;859.20;;;;;;;;;;5014781;28;20398;-73
2021/09/23 05:01:13;;;;;;;972.58;848.15;;;;;;;;;;5017066;28;20444;-73
2021/09/23 05:03:39;;;;;;;969.35;841.45;;;;;;;;;;5013586;28;20014;-73
2021/09/23 05:06:06;;;;;;;976.40;864.92;;;;;;;;;;5009305;28;20394;-73
2021/09/23 05:08:32;;;;;;;972.88;846.20;;;;;;;;;;5005357;28;20538;-74
2021/09/23 05:10:58;;;;;;;970.60;851.38;;;;;;;;;;5011326;28;20030;-73
2021/09/23 05:13:25;;;;;;;979.65;867.70;;;;;;;;;;5004950;28;20032;-73
2021/09/23 05:15:51;;;;;;;979.50;864.17;;;;;;;;;;5027110;28;20017;-74
2021/09/23 05:18:17;;;;;;;974.88;860.90;;;;;;;;;;5009150;28;20037;-74
2021/09/23 05:20:43;;;;;;;974.80;854.67;;;;;;;;;;5011992;28;20109;-74
2021/09/23 05:23:10;;;;;;;962.17;827.63;;;;;;;;;;5008682;28;20552;-73
2021/09/23 05:25:36;;;;;;;929.20;734.70;;;;;;;;;;5008128;28;20383;-74
2021/09/23 05:28:03;;;;;;;934.75;742.95;;;;;;;;;;5009763;28;20025;-73
2021/09/23 05:30:29;;;;;;;950.42;792.83;;;;;;;;;;5004248;28;20087;-73
2021/09/23 05:32:55;;;;;;;963.47;827.15;;;;;;;;;;5010865;28;20129;-73
2021/09/23 05:35:22;;;;;;;954.28;800.28;;;;;;;;;;5007252;28;20030;-73
2021/09/23 05:37:48;;;;;;;969.70;837.45;;;;;;;;;;5011362;28;20077;-72
2021/09/23 05:40:15;;;;;;;972.47;851.45;;;;;;;;;;5015584;28;20536;-74
2021/09/23 05:42:41;;;;;;;965.90;838.97;;;;;;;;;;5012608;28;20040;-73
2021/09/23 05:45:10;;;;;;;975.72;855.70;;;;;;;;;;5005790;28;20029;-74
2021/09/23 05:47:37;;;;;;;973.45;856.17;;;;;;;;;;5012353;28;20104;-73
2021/09/23 05:50:03;;;;;;;976.50;852.40;;;;;;;;;;5009686;28;20512;-73
2021/09/23 05:52:30;;;;;;;975.03;851.13;;;;;;;;;;5005783;28;20405;-73
2021/09/23 05:54:56;;;;;;;980.85;860.45;;;;;;;;;;5013256;28;20037;-73
2021/09/23 05:57:24;;;;;;;973.58;856.58;;;;;;;;;;5010756;28;20037;-72
2021/09/23 05:59:53;;;;;;;980.05;868.25;;;;;;;;;;5001465;28;20022;-73
2021/09/23 06:02:20;;;;;;;974.33;860.00;;;;;;;;;;5011606;28;20440;-72
2021/09/23 06:04:47;;;;;;;973.63;858.92;;;;;;;;;;5008387;28;20017;-73
2021/09/23 06:07:13;;;;;;;977.78;860.72;;;;;;;;;;5007492;28;20034;-73
2021/09/23 06:09:39;;;;;;;975.67;865.22;;;;;;;;;;5008517;28;20041;-73
2021/09/23 06:12:06;;;;;;;975.17;864.53;;;;;;;;;;5007847;28;20030;-72
2021/09/23 06:14:32;;;;;;;978.75;867.20;;;;;;;;;;5007217;28;20029;-73
2021/09/23 06:16:59;;;;;;;981.88;873.28;;;;;;;;;;5007267;28;20045;-73
2021/09/23 06:19:25;;;;;;;987.38;878.90;;;;;;;;;;5008138;28;20557;-72
2021/09/23 06:21:51;;;;;;;992.22;883.38;;;;;;;;;;5007070;28;20084;-73
2021/09/23 06:24:17;;;;;;;995.72;886.78;;;;;;;;;;5007165;28;20113;-73
2021/09/23 06:26:44;;;;;;;996.63;887.58;;;;;;;;;;5007122;28;20021;-73
2021/09/23 06:29:10;;;;;;;999.75;890.65;;;;;;;;;;5007194;28;20092;-72
2021/09/23 06:31:36;;;;;;;996.85;888.08;;;;;;;;;;5004876;28;20030;-73
2021/09/23 06:34:03;;;;;;;1004.05;894.72;;;;;;;;;;5007770;28;20498;-73
2021/09/23 06:36:29;;;;;;;994.50;885.78;;;;;;;;;;5007982;28;20033;-72
2021/09/23 06:38:56;;;;;;;1015.20;905.80;;;;;;;;;;5006890;28;20057;-73
2021/09/23 06:41:22;;;;;;;1015.20;905.83;;;;;;;;;;5008363;28;20032;-71
2021/09/23 06:43:50;;;;;;;1026.63;916.28;;;;;;;;;;5008136;28;20026;-72
2021/09/23 06:46:19;;;;;;;1029.25;918.38;;;;;;;;;;5019778;28;20488;-73
2021/09/23 06:48:45;;;;;;;1031.47;920.38;;;;;;;;;;5027565;28;20513;-72
2021/09/23 06:51:11;;;;;;;1041.93;931.33;;;;;;;;;;5027553;28;20031;-72
2021/09/23 06:53:38;;;;;;;1029.15;919.60;;;;;;;;;;5026465;28;20087;-72
2021/09/23 06:56:04;;;;;;;1037.10;926.63;;;;;;;;;;5015193;28;20065;-73
2021/09/23 06:58:30;;;;;;;1035.35;924.72;;;;;;;;;;5006420;28;20037;-73
2021/09/23 07:00:56;;;;;;;1044.13;933.67;;;;;;;;;;5003658;28;20045;-72
2021/09/23 07:03:22;;;;;;;1038.55;928.53;;;;;;;;;;5008195;28;20486;-72
2021/09/23 07:05:48;;;;;;;1045.35;935.25;;;;;;;;;;5004909;28;20026;-72
2021/09/23 07:08:17;;;;;;;1050.03;939.35;;;;;;;;;;5008566;28;20042;-73
2021/09/23 07:10:43;;;;;;;1053.93;942.72;;;;;;;;;;5004857;28;20022;-72
2021/09/23 07:13:09;;;;;;;1042.95;931.95;;;;;;;;;;5009522;28;20084;-73
2021/09/23 07:15:35;;;;;;;1047.47;936.58;;;;;;;;;;5005935;28;20402;-73
2021/09/23 07:18:01;;;;;;;1058.88;948.13;;;;;;;;;;5005935;28;20034;-71
2021/09/23 07:20:27;;;;;;;1065.25;954.08;;;;;;;;;;5006871;28;20470;-73
2021/09/23 07:22:53;;;;;;;1072.05;960.53;;;;;;;;;;5006415;28;20018;-73
2021/09/23 07:25:23;;;;;;;1083.20;971.97;;;;;;;;;;5006295;28;20022;-72
2021/09/23 07:27:49;;;;;;;1082.47;971.50;;;;;;;;;;5007434;28;20046;-71
2021/09/23 07:30:15;;;;;;;1086.90;976.03;;;;;;;;;;5004110;28;20378;-73
2021/09/23 07:32:41;;;;;;;1086.05;974.90;;;;;;;;;;5006128;28;20040;-73
2021/09/23 07:35:07;;;;;;;1106.80;994.47;;;;;;;;;;5009252;28;20061;-73
2021/09/23 07:37:33;;;;;;;1097.45;986.08;;;;;;;;;;5004500;28;20033;-72
2021/09/23 07:39:59;;;;;;;1091.28;980.13;;;;;;;;;;5006549;28;20077;-72
2021/09/23 07:42:25;;;;;;;1103.72;991.92;;;;;;;;;;5006609;28;20454;-72
2021/09/23 07:44:51;;;;;;;1102.80;990.45;;;;;;;;;;5006087;28;20022;-73
2021/09/23 07:47:17;;;;;;;1117.03;999.03;;;;;;;;;;5007005;28;20450;-72
2021/09/23 07:49:43;;;;;;;1125.38;999.90;;;;;;;;;;5004011;28;20113;-72
2021/09/23 07:52:09;;;;;;;1119.78;999.75;;;;;;;;;;5005856;28;20517;-71
2021/09/23 07:54:35;;;;;;;1115.45;998.97;;;;;;;;;;5006223;28;20104;-71
2021/09/23 07:57:01;;;;;;;1117.93;999.88;;;;;;;;;;5006904;28;20033;-72
2021/09/23 07:59:28;;;;;;;1112.60;998.15;;;;;;;;;;5003337;28;20030;-72
2021/09/23 08:01:54;;;;;;;1110.78;997.13;;;;;;;;;;5003286;28;20355;-71
2021/09/23 08:04:20;;;;;;;1109.65;996.67;;;;;;;;;;5005100;28;20045;-73
2021/09/23 08:06:47;;;;;;;1123.82;999.90;;;;;;;;;;5008012;28;20022;-72
2021/09/23 08:09:13;;;;;;;1119.53;999.72;;;;;;;;;;5002185;28;20091;-72
2021/09/23 08:11:40;;;;;;;1124.40;999.90;;;;;;;;;;5007766;28;20056;-74
2021/09/23 08:14:07;;;;;;;1129.88;999.90;;;;;;;;;;5005495;28;20049;-72
2021/09/23 08:16:33;;;;;;;1131.72;999.90;;;;;;;;;;5005172;28;20029;-74
2021/09/23 08:18:59;;;;;;;1147.55;999.90;;;;;;;;;;5005914;28;20584;-73
2021/09/23 08:21:27;;;;;;;1151.03;999.90;;;;;;;;;;5006480;28;20097;-73
2021/09/23 08:23:53;;;;;;;1158.28;999.90;;;;;;;;;;5005642;28;20370;-72
2021/09/23 08:26:19;;;;;;;1147.22;999.90;;;;;;;;;;5005051;28;20025;-73
2021/09/23 08:28:45;;;;;;;1145.22;999.90;;;;;;;;;;5004121;28;20026;-73
2021/09/23 08:31:15;;;;;;;1145.60;999.90;;;;;;;;;;5001819;28;20056;-73
2021/09/23 08:33:42;;;;;;;1139.43;999.90;;;;;;;;;;5003285;28;20053;-73
2021/09/23 08:36:08;;;;;;;1141.45;999.90;;;;;;;;;;5004283;28;20030;-72
2021/09/23 08:38:33;;;;;;;1139.05;999.90;;;;;;;;;;5004904;28;20026;-73
2021/09/23 08:40:59;;;;;;;1139.07;999.90;;;;;;;;;;5005252;28;20026;-73
2021/09/23 08:43:25;;;;;;;1138.90;999.90;;;;;;;;;;5002375;28;20022;-73
2021/09/23 08:45:55;;;;;;;1145.25;999.90;;;;;;;;;;5005634;28;20414;-74
2021/09/23 08:48:21;;;;;;;1136.63;999.90;;;;;;;;;;5008291;28;20144;-73
2021/09/23 08:50:47;;;;;;;1137.82;999.90;;;;;;;;;;5009589;28;20374;-74
2021/09/23 08:53:13;;;;;;;1152.30;999.90;;;;;;;;;;5004621;28;20066;-74
2021/09/23 08:55:39;;;;;;;1146.47;999.90;;;;;;;;;;5005872;28;20030;-73
2021/09/23 08:58:06;;;;;;;1145.93;999.90;;;;;;;;;;5008161;28;20115;-72
2021/09/23 09:00:35;;;;;;;1144.20;999.90;;;;;;;;;;5006775;28;20037;-73
2021/09/23 09:03:06;;;;;;;1151.43;999.90;;;;;;;;;;5014369;28;20025;-73
2021/09/23 09:05:37;;;;;;;1150.20;999.90;;;;;;;;;;4994027;28;20176;-74
2021/09/23 09:08:03;;;;;;;1148.40;999.90;;;;;;;;;;5008820;28;20490;-72
2021/09/23 09:10:30;;;;;;;1155.78;999.90;;;;;;;;;;5008448;28;20026;-72
2021/09/23 09:12:56;;;;;;;1167.53;999.90;;;;;;;;;;5008919;28;20051;-72
2021/09/23 09:15:29;;;;;;;1171.70;999.90;;;;;;;;;;5008554;28;20038;-73
2021/09/23 09:17:55;;;;;;;1176.18;999.90;;;;;;;;;;5013059;28;20037;-72
2021/09/23 09:20:21;;;;;;;1185.82;999.90;;;;;;;;;;5007144;28;20030;-72
2021/09/23 09:22:47;;;;;;;1186.90;999.90;;;;;;;;;;5007890;28;20025;-74
2021/09/23 09:25:13;;;;;;;1184.20;999.90;;;;;;;;;;5007323;28;20034;-73
2021/09/23 09:27:39;;;;;;;1190.38;999.90;;;;;;;;;;5006508;28;20041;-74
2021/09/23 09:30:12;;;;;;;1185.13;999.90;;;;;;;;;;5006075;28;20038;-72
2021/09/23 09:32:43;;;;;;;1186.45;999.90;;;;;;;;;;5009812;28;20026;-73
2021/09/23 09:35:17;;;;;;;1183.68;999.90;;;;;;;;;;5004727;28;20030;-73
2021/09/23 09:37:45;;;;;;;1190.55;999.90;;;;;;;;;;5008582;28;20589;-73
2021/09/23 09:40:12;;;;;;;1195.13;999.90;;;;;;;;;;5006822;28;20517;-70
2021/09/23 09:42:43;;;;;;;1194.88;999.90;;;;;;;;;;5008151;28;20105;-73
2021/09/23 09:45:14;;;;;;;1194.78;999.90;;;;;;;;;;5008769;28;20018;-72
2021/09/23 09:47:42;;;;;;;1203.55;999.90;;;;;;;;;;5004503;28;20029;-73
2021/09/23 09:50:15;;;;;;;1206.28;999.90;;;;;;;;;;5005727;28;20026;-72
2021/09/23 09:52:47;;;;;;;1197.60;999.90;;;;;;;;;;5008527;28;20498;-73
2021/09/23 09:55:13;;;;;;;1192.70;999.90;;;;;;;;;;5008832;28;20393;-72
2021/09/23 09:57:49;;;;;;;1195.88;999.90;;;;;;;;;;5008859;28;20525;-72
2021/09/23 10:00:16;;;;;;;1197.65;999.90;;;;;;;;;;5006210;28;20270;-73
2021/09/23 10:02:43;;;;;;;1190.22;999.90;;;;;;;;;;5009153;28;20501;-73
2021/09/23 10:05:10;;;;;;;1190.68;999.90;;;;;;;;;;5008998;28;20022;-72
2021/09/23 10:07:36;;;;;;;1189.75;999.90;;;;;;;;;;5007583;28;20038;-72
2021/09/23 10:10:03;;;;;;;1190.45;999.90;;;;;;;;;;5020276;28;20436;-72
2021/09/23 10:12:30;;;;;;;1190.20;999.90;;;;;;;;;;5015880;28;20041;-74
2021/09/23 10:14:56;;;;;;;1187.75;999.90;;;;;;;;;;5007379;28;20076;-72
2021/09/23 10:17:22;;;;;;;1182.38;999.90;;;;;;;;;;5006936;28;20498;-72
2021/09/23 10:19:49;;;;;;;1188.28;999.90;;;;;;;;;;5008144;28;20033;-72
2021/09/23 10:22:15;;;;;;;1192.38;999.90;;;;;;;;;;5006698;28;20057;-73
2021/09/23 10:24:43;;;;;;;1195.75;999.90;;;;;;;;;;5008234;28;20582;-72
2021/09/23 10:29:55;;;;;;;1196.53;999.90;;;;;;;;;;5006735;28;20045;-73
2021/09/23 10:32:21;;;;;;;1196.30;999.90;;;;;;;;;;5006525;28;20477;-72
2021/09/23 10:34:50;;;;;;;1196.47;999.90;;;;;;;;;;5008406;28;20034;-71
2021/09/23 10:37:17;;;;;;;1202.82;999.90;;;;;;;;;;5007442;28;20026;-70
2021/09/23 10:39:43;;;;;;;1199.65;999.90;;;;;;;;;;5006631;28;20037;-72
2021/09/23 10:42:11;;;;;;;1203.18;999.90;;;;;;;;;;5006343;28;20030;-72
2021/09/23 10:44:41;;;;;;;1207.13;999.90;;;;;;;;;;5007263;28;20497;-72
2021/09/23 10:47:07;;;;;;;1202.53;999.90;;;;;;;;;;5007760;28;20408;-70
2021/09/23 10:49:34;;;;;;;1215.95;999.90;;;;;;;;;;5006757;28;20037;-70
2021/09/23 10:52:02;;;;;;;1217.05;999.90;;;;;;;;;;5007616;28;20318;-71
2021/09/23 10:54:28;;;;;;;1223.80;999.90;;;;;;;;;;5007662;28;20036;-72
2021/09/23 10:56:54;;;;;;;1222.57;999.90;;;;;;;;;;5007654;28;20037;-71
2021/09/23 10:59:21;;;;;;;1223.20;999.90;;;;;;;;;;5006731;28;20411;-71
2021/09/23 11:01:47;;;;;;;1217.35;999.90;;;;;;;;;;5012510;28;20105;-71
2021/09/23 11:04:13;;;;;;;1216.18;999.90;;;;;;;;;;5006579;28;20022;-70
2021/09/23 11:06:41;;;;;;;1217.00;999.90;;;;;;;;;;5005768;28;20026;-70
2021/09/23 11:09:19;;;;;;;1215.93;999.90;;;;;;;;;;5005565;28;20034;-70
2021/09/23 11:11:52;;;;;;;1218.30;999.90;;;;;;;;;;5006455;28;20565;-71
2021/09/23 11:14:19;;;;;;;1226.40;999.90;;;;;;;;;;5006398;28;20034;-71
2021/09/23 11:16:46;;;;;;;1227.95;999.90;;;;;;;;;;5006354;28;20026;-71
2021/09/23 11:19:12;;;;;;;1225.32;999.90;;;;;;;;;;5007390;28;20033;-70
2021/09/23 11:21:38;;;;;;;1226.10;999.90;;;;;;;;;;5007522;28;20025;-70
2021/09/23 11:24:04;;;;;;;1227.68;999.90;;;;;;;;;;5007500;28;20474;-71
2021/09/23 11:26:31;;;;;;;1229.18;999.90;;;;;;;;;;5006045;28;20030;-72
2021/09/23 11:28:57;;;;;;;1244.28;999.90;;;;;;;;;;5005585;28;20061;-71
2021/09/23 11:31:23;;;;;;;1241.75;999.90;;;;;;;;;;5003701;28;20026;-72
2021/09/23 11:33:52;;;;;;;1247.38;999.90;;;;;;;;;;5005604;28;20052;-71
2021/09/23 11:36:18;;;;;;;1262.18;999.90;;;;;;;;;;5007180;28;20034;-71
2021/09/23 11:38:45;;;;;;;1271.18;999.90;;;;;;;;;;5006389;28;20030;-71
2021/09/23 11:41:14;;;;;;;1271.13;999.90;;;;;;;;;;5006707;28;20030;-72
2021/09/23 11:43:40;;;;;;;1260.25;999.90;;;;;;;;;;5006108;28;20076;-71
2021/09/23 11:46:06;;;;;;;1265.90;999.90;;;;;;;;;;5005675;28;20518;-72
2021/09/23 11:48:35;;;;;;;1264.32;999.90;;;;;;;;;;5005888;28;20041;-70
2021/09/23 11:51:04;;;;;;;1270.65;999.90;;;;;;;;;;5006069;28;20043;-71
2021/09/23 11:53:31;;;;;;;1256.53;999.90;;;;;;;;;;5007030;28;20058;-70
2021/09/23 11:56:05;;;;;;;1257.60;999.90;;;;;;;;;;5005582;28;20041;-72
2021/09/23 11:58:32;;;;;;;1251.78;999.90;;;;;;;;;;5006403;28;20528;-71
2021/09/23 12:00:58;;;;;;;1251.93;999.90;;;;;;;;;;5002649;28;20445;-72
2021/09/23 12:03:25;;;;;;;1246.50;999.90;;;;;;;;;;5005661;28;20021;-70
2021/09/23 12:05:52;;;;;;;1246.15;999.90;;;;;;;;;;5006735;28;20026;-71
2021/09/23 12:08:18;;;;;;;1237.03;999.90;;;;;;;;;;5006696;28;20034;-72
2021/09/23 12:11:03;;;;;;;1237.13;999.90;;;;;;;;;;5005117;28;20026;-71
2021/09/23 12:13:36;;;;;;;1232.72;999.90;;;;;;;;;;5005803;28;20087;-71
2021/09/23 12:16:16;;;;;;;1232.80;999.90;;;;;;;;;;5005435;28;20018;-70
2021/09/23 12:18:43;;;;;;;1226.50;999.90;;;;;;;;;;5005632;28;20026;-71
2021/09/23 12:21:16;;;;;;;1239.10;999.90;;;;;;;;;;5005252;28;20034;-71
2021/09/23 12:23:43;;;;;;;1237.70;999.90;;;;;;;;;;5005454;28;20512;-71
2021/09/23 12:26:09;;;;;;;1234.82;999.90;;;;;;;;;;5007775;28;20029;-71
2021/09/23 12:28:39;;;;;;;1233.45;999.90;;;;;;;;;;5006464;28;20029;-72
2021/09/23 12:31:07;;;;;;;1230.57;999.90;;;;;;;;;;5005885;28;20495;-70
2021/09/23 12:33:33;;;;;;;1233.78;999.90;;;;;;;;;;5009018;28;20269;-72
2021/09/23 12:36:13;;;;;;;1236.45;999.90;;;;;;;;;;5008566;28;20045;-72
2021/09/23 12:38:41;;;;;;;1221.03;999.90;;;;;;;;;;5009880;28;20429;-71
2021/09/23 12:41:17;;;;;;;1218.32;999.90;;;;;;;;;;5008820;28;20038;-72
2021/09/23 12:43:44;;;;;;;1218.20;999.90;;;;;;;;;;5025962;28;20075;-71
2021/09/23 12:46:13;;;;;;;1216.63;999.90;;;;;;;;;;5026732;28;20049;-72
2021/09/23 12:48:42;;;;;;;1215.10;999.90;;;;;;;;;;5009380;28;20030;-71
2021/09/23 12:51:09;;;;;;;1207.33;999.90;;;;;;;;;;5007638;28;20398;-73
2021/09/23 12:53:35;;;;;;;1219.15;999.90;;;;;;;;;;5011529;28;20301;-71
2021/09/23 12:56:03;;;;;;;1208.65;999.90;;;;;;;;;;5007737;28;20407;-71
2021/09/23 12:58:29;;;;;;;1210.25;999.90;;;;;;;;;;5006940;28;20113;-71
2021/09/23 13:00:56;;;;;;;1212.50;999.90;;;;;;;;;;5006979;28;20453;-71
2021/09/23 13:03:23;;;;;;;1211.05;999.90;;;;;;;;;;5007455;28;20033;-72
2021/09/23 13:05:49;;;;;;;1216.53;999.90;;;;;;;;;;5007751;28;20042;-73
2021/09/23 13:08:22;;;;;;;1215.82;999.90;;;;;;;;;;5004916;28;20105;-73
2021/09/23 13:10:48;;;;;;;1215.65;999.90;;;;;;;;;;5008248;28;20504;-73
2021/09/23 13:13:14;;;;;;;1220.20;999.90;;;;;;;;;;5012683;28;20025;-74
2021/09/23 13:15:40;;;;;;;1223.53;999.90;;;;;;;;;;5008247;28;20037;-74
2021/09/23 13:18:16;;;;;;;1228.57;999.90;;;;;;;;;;5005782;28;20377;-74
2021/09/23 13:20:53;;;;;;;1222.88;999.90;;;;;;;;;;5009361;28;20473;-73
2021/09/23 13:23:22;;;;;;;1226.68;999.90;;;;;;;;;;5008935;28;20880;-73
2021/09/23 13:25:49;;;;;;;1238.40;999.90;;;;;;;;;;5007637;28;20026;-74
2021/09/23 13:28:16;;;;;;;1230.93;999.90;;;;;;;;;;5007517;28;20066;-73
2021/09/23 13:30:44;;;;;;;1238.32;999.90;;;;;;;;;;5005572;28;20557;-74
2021/09/23 13:33:10;;;;;;;1247.10;999.90;;;;;;;;;;5013104;28;20408;-75
2021/09/23 13:35:37;;;;;;;1241.63;999.90;;;;;;;;;;5020963;28;20029;-73
2021/09/23 13:38:03;;;;;;;1233.55;999.90;;;;;;;;;;5008990;28;20164;-73
2021/09/23 13:40:29;;;;;;;1229.38;999.90;;;;;;;;;;5010311;28;20461;-73
2021/09/23 13:42:55;;;;;;;1227.30;999.90;;;;;;;;;;5008112;28;20030;-73
2021/09/23 13:45:21;;;;;;;1230.00;999.90;;;;;;;;;;5007791;28;20092;-73
2021/09/23 13:47:48;;;;;;;1240.50;999.90;;;;;;;;;;5006005;28;20033;-73
2021/09/23 13:50:14;;;;;;;1234.53;999.90;;;;;;;;;;5007897;28;20025;-72